Tubize, Belgium
Current Conditions -  °F | °C
As of 5:20 AM on Thursday 18 Dec 2014 (Local Time) from EBCI Reporting Station
Light Rain Light Rain  
Wind Chill: 10°   Ceiling: 400
Heat Index: 10°   Visibility: 2.1mi
Dew Point: 10°   Wind: 14mph
Humidity: 100%   Direction: 230°SW
Pressure: 29.85"   Gusts: NA
Location:  50.69°N, 4.2°E
Report Text: EBCI 180420Z 23012KT 3500 -RA FEW003 BKN004 10/10 Q1011 TEMPO 2500
Loading
Personal Weather Stations






























Interactive Weather Map New forecast layout! Learn more

10-Day Weather Forecast

Advertisements
Track Severe Weather on mobile